Home   Weather   Germany   Elmshorn   Past weeks
Flag for Germany

Past Weather in Elmshorn, Schleswig-Holstein, Germany — Yesterday and Last 2 Weeks

Currently: 81 °F. Passing clouds. (Weather station: Hamburg-Fuhlsbuettel, Germany). See more current weather

Past Weather in Elmshorn — Graph

°F

Elmshorn Temperature Yesterday

Maximum temperature yesterday: 66 °F (at 4:20 pm)
Minimum temperature yesterday: 54 °F (at 1:20 am)
Average temperature yesterday: 61 °F

High & Low Weather Summary for the Past Weeks

 TemperatureHumidityPressure
High82 °F (Jul 13, 3:50 pm)100% (Jul 9, 8:20 pm)30.21 "Hg (Jul 9, 8:20 pm)
Low52 °F (Jul 20, 4:20 am)42% (Jul 24, 4:20 pm)29.71 "Hg (Jul 14, 3:20 pm)
Average67 °F78%30.02 "Hg
* Reported Jul 9 4:20 pm — Jul 24 4:20 pm, Elmshorn. Weather by CustomWeather, © 2021

Note: Actual official high and low records may vary slightly from our data, if they occured in-between our weather recording intervals... More about our weather records

Elmshorn Weather History for the Previous 24 Hours

Scroll right to see more
 ConditionsComfort  
Time TempWeatherWind HumidityBarometerVisibility
4:20 pm
Sat, Jul 24
82 °FPassing clouds.9 mph42%29.83 "HgN/A
3:50 pm81 °FPassing clouds.13 mph45%29.86 "HgN/A
3:20 pm81 °FSunny.7 mph45%29.86 "Hg10 mi
2:50 pm79 °FSunny.6 mph45%29.86 "Hg10 mi
2:20 pm79 °FSunny.8 mph45%29.86 "Hg10 mi
1:50 pm79 °FPassing clouds.7 mph45%29.86 "HgN/A
1:20 pm77 °FPassing clouds.8 mph51%29.89 "HgN/A
12:50 pm75 °FPassing clouds.9 mph50%29.89 "HgN/A
12:20 pm75 °FPassing clouds.7 mph54%29.89 "HgN/A
11:50 am73 °FPassing clouds.7 mph53%29.89 "HgN/A
11:20 am73 °FPassing clouds.10 mph57%29.89 "HgN/A
10:50 am72 °FPassing clouds.8 mph65%29.89 "HgN/A
10:20 am70 °FPassing clouds.8 mph69%29.92 "HgN/A
9:50 am70 °FPassing clouds.7 mph64%29.92 "HgN/A
9:20 am68 °FPassing clouds.6 mph73%29.92 "HgN/A
8:50 am66 °FPassing clouds.5 mph78%29.95 "HgN/A
8:20 am64 °FPassing clouds.3 mph78%29.95 "HgN/A
7:50 am63 °FSunny.2 mph77%29.95 "Hg10 mi
7:20 am59 °FSunny.5 mph88%29.95 "Hg10 mi
6:50 am57 °FSunny.5 mph94%29.95 "Hg10 mi
6:20 am55 °FSunny.3 mph94%29.95 "Hg10 mi
5:50 am54 °FSunny.6 mph100%29.95 "Hg10 mi
5:20 am54 °FClear.5 mph94%29.95 "Hg10 mi
4:50 am54 °FClear.3 mph100%29.98 "Hg10 mi
4:20 am52 °FLight fog.1 mph100%29.98 "HgN/A
3:50 am52 °FLight fog.1 mph100%29.98 "HgN/A
3:20 am54 °FClear.1 mph100%29.98 "Hg10 mi
2:50 am54 °FClear.2 mph100%29.98 "Hg10 mi
2:20 am54 °FClear.No wind100%29.98 "Hg10 mi
1:50 am54 °FLight fog.1 mph100%30.01 "HgN/A
1:20 am55 °FLight fog.1 mph100%30.01 "HgN/A
12:50 am54 °FLight fog.2 mph100%30.01 "HgN/A
12:20 am55 °FLight fog.1 mph94%30.01 "HgN/A
11:50 pm
Fri, Jul 23
55 °FPassing clouds.1 mph100%30.01 "HgN/A
11:20 pm57 °FPassing clouds.5 mph94%30.01 "HgN/A
10:50 pm57 °FPassing clouds.3 mph94%30.01 "HgN/A
10:20 pm57 °FPassing clouds.3 mph94%30.01 "HgN/A
9:50 pm59 °FPassing clouds.3 mph94%30.01 "HgN/A
9:20 pm61 °FPassing clouds.3 mph88%30.01 "HgN/A
8:50 pm63 °FPassing clouds.6 mph83%30.01 "HgN/A
8:20 pm64 °FPassing clouds.7 mph78%30.01 "HgN/A
7:50 pm64 °FPassing clouds.7 mph78%30.01 "HgN/A
7:20 pm66 °FPassing clouds.7 mph73%30.01 "HgN/A
6:50 pm64 °FScattered clouds.7 mph78%30.01 "HgN/A
6:20 pm66 °FScattered clouds.6 mph73%30.04 "HgN/A
5:50 pm64 °FPartly sunny.5 mph78%30.04 "HgN/A
5:20 pm66 °FPartly sunny.6 mph73%30.04 "HgN/A
Weather by CustomWeather, © 2021

See weather overview